sensor_id;sensor_type;location;lat;lon;timestamp;pressure;altitude;pressure_sealevel;temperature;humidity
55070;BME280;40967;52.070;8.596;2023-09-12T00:01:39;100133.94;;;22.22;79.77
55070;BME280;40967;52.070;8.596;2023-09-12T00:04:05;100145.00;;;22.22;79.93
55070;BME280;40967;52.070;8.596;2023-09-12T00:06:31;100139.03;;;22.20;79.86
55070;BME280;40967;52.070;8.596;2023-09-12T00:08:56;100146.06;;;22.18;79.84
55070;BME280;40967;52.070;8.596;2023-09-12T00:11:22;100134.47;;;22.12;79.68
55070;BME280;40967;52.070;8.596;2023-09-12T00:13:51;100134.47;;;22.12;80.00
55070;BME280;40967;52.070;8.596;2023-09-12T00:16:16;100133.25;;;22.10;80.40
55070;BME280;40967;52.070;8.596;2023-09-12T00:18:45;100140.25;;;22.07;80.46
55070;BME280;40967;52.070;8.596;2023-09-12T00:21:11;100131.06;;;22.03;80.23
55070;BME280;40967;52.070;8.596;2023-09-12T00:23:38;100137.59;;;21.95;81.03
55070;BME280;40967;52.070;8.596;2023-09-12T00:26:04;100126.59;;;21.83;81.85
55070;BME280;40967;52.070;8.596;2023-09-12T00:28:30;100133.63;;;21.81;82.72
55070;BME280;40967;52.070;8.596;2023-09-12T00:30:55;100124.78;;;21.75;82.99
55070;BME280;40967;52.070;8.596;2023-09-12T00:33:21;100117.19;;;21.72;83.17
55070;BME280;40967;52.070;8.596;2023-09-12T00:35:46;100120.66;;;21.69;83.03
55070;BME280;40967;52.070;8.596;2023-09-12T00:38:11;100122.59;;;21.69;83.05
55070;BME280;40967;52.070;8.596;2023-09-12T00:40:37;100120.00;;;21.60;84.15
55070;BME280;40967;52.070;8.596;2023-09-12T00:43:03;100117.03;;;21.53;84.75
55070;BME280;40967;52.070;8.596;2023-09-12T00:45:28;100113.81;;;21.51;85.55
55070;BME280;40967;52.070;8.596;2023-09-12T00:47:55;100111.00;;;21.35;87.40
55070;BME280;40967;52.070;8.596;2023-09-12T00:50:24;100106.09;;;21.29;87.38
55070;BME280;40967;52.070;8.596;2023-09-12T00:52:51;100108.50;;;21.30;87.24
55070;BME280;40967;52.070;8.596;2023-09-12T00:55:17;100109.22;;;21.27;88.04
55070;BME280;40967;52.070;8.596;2023-09-12T00:57:43;100102.59;;;21.04;90.06
55070;BME280;40967;52.070;8.596;2023-09-12T01:00:11;100117.69;;;21.07;90.85
55070;BME280;40967;52.070;8.596;2023-09-12T01:02:45;100134.69;;;20.97;93.02
55070;BME280;40967;52.070;8.596;2023-09-12T01:05:12;100144.81;;;20.81;94.47
55070;BME280;40967;52.070;8.596;2023-09-12T01:07:38;100180.19;;;20.79;95.71
55070;BME280;40967;52.070;8.596;2023-09-12T01:10:07;100189.16;;;20.64;96.87
55070;BME280;40967;52.070;8.596;2023-09-12T01:12:33;100176.41;;;20.59;97.79
55070;BME280;40967;52.070;8.596;2023-09-12T01:14:58;100164.81;;;20.66;97.81
55070;BME280;40967;52.070;8.596;2023-09-12T01:17:24;100184.66;;;20.71;97.21
55070;BME280;40967;52.070;8.596;2023-09-12T01:19:50;100188.00;;;20.77;97.12
55070;BME280;40967;52.070;8.596;2023-09-12T01:27:41;100187.53;;;20.87;97.37
55070;BME280;40967;52.070;8.596;2023-09-12T01:30:10;100169.50;;;20.89;97.22
55070;BME280;40967;52.070;8.596;2023-09-12T01:32:37;100168.44;;;20.94;96.29
55070;BME280;40967;52.070;8.596;2023-09-12T01:35:03;100159.84;;;20.95;96.22
55070;BME280;40967;52.070;8.596;2023-09-12T01:37:32;100157.88;;;20.96;95.45
55070;BME280;40967;52.070;8.596;2023-09-12T01:39:58;100154.13;;;21.00;94.75
55070;BME280;40967;52.070;8.596;2023-09-12T01:42:24;100154.34;;;21.07;94.50
55070;BME280;40967;52.070;8.596;2023-09-12T01:44:55;100164.69;;;21.10;94.52
55070;BME280;40967;52.070;8.596;2023-09-12T01:47:22;100175.00;;;21.13;93.73
55070;BME280;40967;52.070;8.596;2023-09-12T01:49:52;100152.47;;;21.11;93.42
55070;BME280;40967;52.070;8.596;2023-09-12T01:52:19;100164.19;;;21.20;93.34
55070;BME280;40967;52.070;8.596;2023-09-12T01:54:46;100170.16;;;21.22;93.20
55070;BME280;40967;52.070;8.596;2023-09-12T01:57:13;100168.22;;;21.23;93.24
55070;BME280;40967;52.070;8.596;2023-09-12T01:59:39;100178.81;;;21.21;93.56
55070;BME280;40967;52.070;8.596;2023-09-12T02:02:05;100178.34;;;21.19;93.58
55070;BME280;40967;52.070;8.596;2023-09-12T02:04:30;100183.19;;;21.10;96.79
55070;BME280;40967;52.070;8.596;2023-09-12T02:06:56;100172.97;;;20.98;98.29
55070;BME280;40967;52.070;8.596;2023-09-12T02:09:25;100168.34;;;21.02;98.23
55070;BME280;40967;52.070;8.596;2023-09-12T02:11:51;100159.16;;;21.10;97.22
55070;BME280;40967;52.070;8.596;2023-09-12T02:14:17;100178.22;;;21.15;96.94
55070;BME280;40967;52.070;8.596;2023-09-12T02:16:46;100173.31;;;21.09;98.20
55070;BME280;40967;52.070;8.596;2023-09-12T02:19:12;100169.63;;;20.93;100.00
55070;BME280;40967;52.070;8.596;2023-09-12T02:21:39;100181.91;;;20.83;100.00
55070;BME280;40967;52.070;8.596;2023-09-12T02:24:05;100199.50;;;20.79;100.00
55070;BME280;40967;52.070;8.596;2023-09-12T02:26:30;100217.75;;;20.71;100.00
55070;BME280;40967;52.070;8.596;2023-09-12T02:29:03;100249.00;;;20.63;100.00
55070;BME280;40967;52.070;8.596;2023-09-12T02:31:31;100278.75;;;20.58;100.00
55070;BME280;40967;52.070;8.596;2023-09-12T02:33:56;100305.72;;;20.52;100.00
55070;BME280;40967;52.070;8.596;2023-09-12T02:36:21;100311.78;;;20.46;100.00
55070;BME280;40967;52.070;8.596;2023-09-12T02:38:47;100290.44;;;20.43;100.00
55070;BME280;40967;52.070;8.596;2023-09-12T02:41:12;100289.25;;;20.44;100.00
55070;BME280;40967;52.070;8.596;2023-09-12T02:43:37;100295.13;;;20.42;100.00
55070;BME280;40967;52.070;8.596;2023-09-12T02:46:03;100290.06;;;20.44;100.00
55070;BME280;40967;52.070;8.596;2023-09-12T02:48:28;100304.31;;;20.46;100.00
55070;BME280;40967;52.070;8.596;2023-09-12T02:50:54;100272.06;;;20.47;100.00
55070;BME280;40967;52.070;8.596;2023-09-12T02:53:20;100249.91;;;20.55;100.00
55070;BME280;40967;52.070;8.596;2023-09-12T02:55:48;100204.53;;;20.65;100.00
55070;BME280;40967;52.070;8.596;2023-09-12T02:58:14;100161.25;;;20.77;100.00
55070;BME280;40967;52.070;8.596;2023-09-12T03:00:40;100135.03;;;20.83;100.00
55070;BME280;40967;52.070;8.596;2023-09-12T03:03:06;100154.56;;;20.90;100.00
55070;BME280;40967;52.070;8.596;2023-09-12T03:05:31;100136.53;;;20.93;100.00
55070;BME280;40967;52.070;8.596;2023-09-12T03:07:57;100111.81;;;20.96;100.00
55070;BME280;40967;52.070;8.596;2023-09-12T03:10:22;100103.19;;;20.98;100.00
55070;BME280;40967;52.070;8.596;2023-09-12T03:12:48;100106.78;;;20.98;100.00
55070;BME280;40967;52.070;8.596;2023-09-12T03:15:13;100107.25;;;21.00;100.00
55070;BME280;40967;52.070;8.596;2023-09-12T03:17:39;100109.19;;;21.00;100.00
55070;BME280;40967;52.070;8.596;2023-09-12T03:20:05;100119.41;;;20.99;100.00
55070;BME280;40967;52.070;8.596;2023-09-12T03:22:34;100127.53;;;20.96;100.00
55070;BME280;40967;52.070;8.596;2023-09-12T03:25:03;100147.00;;;20.99;100.00
55070;BME280;40967;52.070;8.596;2023-09-12T03:27:31;100153.78;;;20.90;100.00
55070;BME280;40967;52.070;8.596;2023-09-12T03:29:57;100160.91;;;20.79;100.00
55070;BME280;40967;52.070;8.596;2023-09-12T03:32:23;100159.06;;;20.71;100.00
55070;BME280;40967;52.070;8.596;2023-09-12T03:34:48;100148.50;;;20.73;100.00
55070;BME280;40967;52.070;8.596;2023-09-12T03:37:13;100149.06;;;20.78;100.00
55070;BME280;40967;52.070;8.596;2023-09-12T03:39:39;100159.16;;;20.86;100.00
55070;BME280;40967;52.070;8.596;2023-09-12T03:42:04;100151.78;;;20.90;100.00
55070;BME280;40967;52.070;8.596;2023-09-12T03:44:33;100160.28;;;20.97;100.00
55070;BME280;40967;52.070;8.596;2023-09-12T03:46:58;100174.31;;;20.92;100.00
55070;BME280;40967;52.070;8.596;2023-09-12T03:49:24;100196.03;;;20.82;100.00
55070;BME280;40967;52.070;8.596;2023-09-12T03:51:49;100236.28;;;20.71;100.00
55070;BME280;40967;52.070;8.596;2023-09-12T03:54:16;100258.53;;;20.54;100.00
55070;BME280;40967;52.070;8.596;2023-09-12T03:56:41;100239.66;;;20.44;100.00
55070;BME280;40967;52.070;8.596;2023-09-12T03:59:07;100238.97;;;20.35;100.00
55070;BME280;40967;52.070;8.596;2023-09-12T04:01:32;100274.66;;;20.31;100.00
55070;BME280;40967;52.070;8.596;2023-09-12T04:03:57;100256.16;;;20.31;100.00
55070;BME280;40967;52.070;8.596;2023-09-12T04:06:23;100231.16;;;20.37;100.00
55070;BME280;40967;52.070;8.596;2023-09-12T04:08:48;100215.31;;;20.46;100.00
55070;BME280;40967;52.070;8.596;2023-09-12T04:11:14;100244.28;;;20.52;100.00
55070;BME280;40967;52.070;8.596;2023-09-12T04:13:39;100264.94;;;20.58;100.00
55070;BME280;40967;52.070;8.596;2023-09-12T04:16:04;100225.56;;;20.57;100.00
55070;BME280;40967;52.070;8.596;2023-09-12T04:18:33;100186.63;;;20.59;100.00
55070;BME280;40967;52.070;8.596;2023-09-12T04:21:00;100173.53;;;20.68;100.00
55070;BME280;40967;52.070;8.596;2023-09-12T04:23:25;100150.34;;;20.69;100.00
55070;BME280;40967;52.070;8.596;2023-09-12T04:25:51;100165.94;;;20.77;100.00
55070;BME280;40967;52.070;8.596;2023-09-12T04:28:16;100195.25;;;20.81;100.00
55070;BME280;40967;52.070;8.596;2023-09-12T04:30:42;100205.94;;;20.83;100.00
55070;BME280;40967;52.070;8.596;2023-09-12T04:33:07;100215.47;;;20.73;100.00
55070;BME280;40967;52.070;8.596;2023-09-12T04:35:33;100206.94;;;20.66;100.00
55070;BME280;40967;52.070;8.596;2023-09-12T04:37:59;100192.38;;;20.66;100.00
55070;BME280;40967;52.070;8.596;2023-09-12T04:40:24;100223.16;;;20.68;100.00
55070;BME280;40967;52.070;8.596;2023-09-12T04:42:49;100209.00;;;20.45;100.00
55070;BME280;40967;52.070;8.596;2023-09-12T04:45:15;100223.94;;;20.44;100.00
55070;BME280;40967;52.070;8.596;2023-09-12T04:47:40;100236.31;;;20.38;100.00
55070;BME280;40967;52.070;8.596;2023-09-12T04:50:09;100222.44;;;20.35;100.00
55070;BME280;40967;52.070;8.596;2023-09-12T04:52:37;100221.63;;;20.34;100.00
55070;BME280;40967;52.070;8.596;2023-09-12T04:55:02;100204.97;;;20.30;100.00
55070;BME280;40967;52.070;8.596;2023-09-12T04:57:30;100223.56;;;20.33;100.00
55070;BME280;40967;52.070;8.596;2023-09-12T04:59:56;100251.00;;;20.30;100.00
55070;BME280;40967;52.070;8.596;2023-09-12T05:02:26;100242.13;;;20.24;100.00
55070;BME280;40967;52.070;8.596;2023-09-12T05:04:52;100229.75;;;20.18;100.00
55070;BME280;40967;52.070;8.596;2023-09-12T05:07:17;100192.47;;;20.12;100.00
55070;BME280;40967;52.070;8.596;2023-09-12T05:09:43;100176.78;;;20.13;100.00
55070;BME280;40967;52.070;8.596;2023-09-12T05:12:08;100177.56;;;20.01;100.00
55070;BME280;40967;52.070;8.596;2023-09-12T05:14:35;100199.34;;;19.94;100.00
55070;BME280;40967;52.070;8.596;2023-09-12T05:17:00;100192.53;;;19.92;100.00
55070;BME280;40967;52.070;8.596;2023-09-12T05:19:27;100188.31;;;19.94;100.00
55070;BME280;40967;52.070;8.596;2023-09-12T05:21:52;100187.41;;;20.02;100.00
55070;BME280;40967;52.070;8.596;2023-09-12T05:24:18;100189.25;;;20.10;100.00
55070;BME280;40967;52.070;8.596;2023-09-12T05:26:43;100186.28;;;20.15;100.00
55070;BME280;40967;52.070;8.596;2023-09-12T05:29:10;100185.84;;;20.13;100.00
55070;BME280;40967;52.070;8.596;2023-09-12T05:31:35;100189.03;;;20.15;100.00
55070;BME280;40967;52.070;8.596;2023-09-12T05:34:00;100184.44;;;20.07;100.00
55070;BME280;40967;52.070;8.596;2023-09-12T05:36:26;100188.44;;;19.98;100.00
55070;BME280;40967;52.070;8.596;2023-09-12T05:38:51;100180.41;;;19.93;100.00
55070;BME280;40967;52.070;8.596;2023-09-12T05:41:16;100193.81;;;19.94;100.00
55070;BME280;40967;52.070;8.596;2023-09-12T05:43:42;100181.31;;;19.97;100.00
55070;BME280;40967;52.070;8.596;2023-09-12T05:46:07;100170.28;;;19.97;100.00
55070;BME280;40967;52.070;8.596;2023-09-12T05:48:35;100156.53;;;19.97;100.00
55070;BME280;40967;52.070;8.596;2023-09-12T05:51:01;100160.66;;;19.91;100.00
55070;BME280;40967;52.070;8.596;2023-09-12T05:53:26;100155.03;;;19.87;100.00
55070;BME280;40967;52.070;8.596;2023-09-12T05:55:52;100172.47;;;19.91;100.00
55070;BME280;40967;52.070;8.596;2023-09-12T05:58:17;100129.56;;;19.90;100.00
55070;BME280;40967;52.070;8.596;2023-09-12T06:00:43;100105.03;;;19.97;100.00
55070;BME280;40967;52.070;8.596;2023-09-12T06:03:08;100103.19;;;19.89;100.00
55070;BME280;40967;52.070;8.596;2023-09-12T06:05:34;100123.81;;;19.83;100.00
55070;BME280;40967;52.070;8.596;2023-09-12T06:07:59;100117.91;;;19.73;100.00
55070;BME280;40967;52.070;8.596;2023-09-12T06:10:25;100109.31;;;19.74;100.00
55070;BME280;40967;52.070;8.596;2023-09-12T06:12:50;100103.94;;;19.78;100.00
55070;BME280;40967;52.070;8.596;2023-09-12T06:15:15;100123.22;;;19.78;100.00
55070;BME280;40967;52.070;8.596;2023-09-12T06:17:41;100173.69;;;19.82;100.00
55070;BME280;40967;52.070;8.596;2023-09-12T06:20:07;100134.91;;;19.75;100.00
55070;BME280;40967;52.070;8.596;2023-09-12T06:22:33;100110.72;;;19.80;100.00
55070;BME280;40967;52.070;8.596;2023-09-12T06:24:59;100108.31;;;19.79;100.00
55070;BME280;40967;52.070;8.596;2023-09-12T06:27:24;100109.31;;;19.74;100.00
55070;BME280;40967;52.070;8.596;2023-09-12T06:29:49;100099.59;;;19.77;100.00
55070;BME280;40967;52.070;8.596;2023-09-12T06:32:16;100088.44;;;19.73;100.00
55070;BME280;40967;52.070;8.596;2023-09-12T06:34:42;100108.44;;;19.82;100.00
55070;BME280;40967;52.070;8.596;2023-09-12T06:37:08;100118.16;;;19.80;100.00
55070;BME280;40967;52.070;8.596;2023-09-12T06:39:33;100117.00;;;19.81;100.00
55070;BME280;40967;52.070;8.596;2023-09-12T06:42:00;100108.31;;;19.79;100.00
55070;BME280;40967;52.070;8.596;2023-09-12T06:44:25;100117.78;;;19.69;100.00
55070;BME280;40967;52.070;8.596;2023-09-12T06:46:50;100100.69;;;19.64;100.00
55070;BME280;40967;52.070;8.596;2023-09-12T06:49:16;100104.03;;;19.69;100.00
55070;BME280;40967;52.070;8.596;2023-09-12T06:51:41;100108.50;;;19.74;100.00
55070;BME280;40967;52.070;8.596;2023-09-12T06:54:08;100110.47;;;19.73;100.00
55070;BME280;40967;52.070;8.596;2023-09-12T06:56:33;100123.56;;;19.76;100.00
55070;BME280;40967;52.070;8.596;2023-09-12T06:59:03;100128.13;;;19.72;100.00
55070;BME280;40967;52.070;8.596;2023-09-12T07:01:28;100144.38;;;19.65;100.00
55070;BME280;40967;52.070;8.596;2023-09-12T07:03:53;100169.16;;;19.65;100.00
55070;BME280;40967;52.070;8.596;2023-09-12T07:06:20;100203.53;;;19.59;100.00
55070;BME280;40967;52.070;8.596;2023-09-12T07:08:46;100224.81;;;19.50;100.00
55070;BME280;40967;52.070;8.596;2023-09-12T07:11:11;100220.19;;;19.42;100.00
55070;BME280;40967;52.070;8.596;2023-09-12T07:13:36;100200.47;;;19.40;100.00
55070;BME280;40967;52.070;8.596;2023-09-12T07:16:02;100193.47;;;19.43;100.00
55070;BME280;40967;52.070;8.596;2023-09-12T07:18:30;100195.63;;;19.37;100.00
55070;BME280;40967;52.070;8.596;2023-09-12T07:20:58;100206.97;;;19.27;100.00
55070;BME280;40967;52.070;8.596;2023-09-12T07:23:24;100213.75;;;19.09;100.00
55070;BME280;40967;52.070;8.596;2023-09-12T07:25:49;100213.19;;;18.95;100.00
55070;BME280;40967;52.070;8.596;2023-09-12T07:28:15;100208.44;;;18.75;100.00
55070;BME280;40967;52.070;8.596;2023-09-12T07:30:40;100226.28;;;18.60;100.00
55070;BME280;40967;52.070;8.596;2023-09-12T07:33:06;100215.81;;;18.54;100.00
55070;BME280;40967;52.070;8.596;2023-09-12T07:35:31;100207.13;;;18.43;100.00
55070;BME280;40967;52.070;8.596;2023-09-12T07:37:56;100212.16;;;18.33;100.00
55070;BME280;40967;52.070;8.596;2023-09-12T07:40:22;100232.00;;;18.30;100.00
55070;BME280;40967;52.070;8.596;2023-09-12T07:42:47;100230.22;;;18.34;100.00
55070;BME280;40967;52.070;8.596;2023-09-12T07:45:13;100222.31;;;18.41;100.00
55070;BME280;40967;52.070;8.596;2023-09-12T07:47:39;100187.72;;;18.48;100.00
55070;BME280;40967;52.070;8.596;2023-09-12T07:50:06;100210.47;;;18.57;100.00
55070;BME280;40967;52.070;8.596;2023-09-12T07:52:32;100202.97;;;18.66;100.00
55070;BME280;40967;52.070;8.596;2023-09-12T07:55:04;100205.38;;;18.68;100.00
55070;BME280;40967;52.070;8.596;2023-09-12T07:57:29;100221.38;;;18.74;100.00
55070;BME280;40967;52.070;8.596;2023-09-12T07:59:56;100249.94;;;18.82;100.00
55070;BME280;40967;52.070;8.596;2023-09-12T08:02:21;100268.50;;;18.93;100.00
55070;BME280;40967;52.070;8.596;2023-09-12T08:04:48;100267.66;;;19.01;100.00
55070;BME280;40967;52.070;8.596;2023-09-12T08:07:14;100269.72;;;19.04;100.00
55070;BME280;40967;52.070;8.596;2023-09-12T08:09:57;100242.22;;;19.04;100.00
55070;BME280;40967;52.070;8.596;2023-09-12T08:12:24;100240.50;;;19.00;100.00
55070;BME280;40967;52.070;8.596;2023-09-12T08:14:49;100250.75;;;18.82;100.00
55070;BME280;40967;52.070;8.596;2023-09-12T08:17:15;100299.44;;;18.82;100.00
55070;BME280;40967;52.070;8.596;2023-09-12T08:19:41;100364.44;;;18.86;100.00
55070;BME280;40967;52.070;8.596;2023-09-12T08:22:08;100369.44;;;18.84;100.00
55070;BME280;40967;52.070;8.596;2023-09-12T08:24:34;100324.41;;;18.60;100.00
55070;BME280;40967;52.070;8.596;2023-09-12T08:27:00;100355.59;;;18.72;100.00
55070;BME280;40967;52.070;8.596;2023-09-12T08:29:28;100358.66;;;18.71;100.00
55070;BME280;40967;52.070;8.596;2023-09-12T08:31:53;100336.69;;;18.71;100.00
55070;BME280;40967;52.070;8.596;2023-09-12T08:34:20;100355.44;;;18.69;100.00
55070;BME280;40967;52.070;8.596;2023-09-12T08:36:46;100363.53;;;18.65;100.00
55070;BME280;40967;52.070;8.596;2023-09-12T08:39:15;100380.31;;;18.72;100.00
55070;BME280;40967;52.070;8.596;2023-09-12T08:41:43;100383.41;;;18.71;100.00
55070;BME280;40967;52.070;8.596;2023-09-12T08:44:09;100376.94;;;18.67;100.00
55070;BME280;40967;52.070;8.596;2023-09-12T08:46:35;100338.47;;;18.58;100.00
55070;BME280;40967;52.070;8.596;2023-09-12T08:49:03;100332.00;;;18.63;100.00
55070;BME280;40967;52.070;8.596;2023-09-12T08:51:32;100334.72;;;18.71;100.00
55070;BME280;40967;52.070;8.596;2023-09-12T08:53:58;100366.22;;;18.82;100.00
55070;BME280;40967;52.070;8.596;2023-09-12T08:56:32;100360.69;;;18.91;100.00
55070;BME280;40967;52.070;8.596;2023-09-12T08:58:58;100360.50;;;18.96;100.00
55070;BME280;40967;52.070;8.596;2023-09-12T09:01:30;100348.06;;;18.98;100.00
55070;BME280;40967;52.070;8.596;2023-09-12T09:03:56;100353.53;;;19.07;100.00
55070;BME280;40967;52.070;8.596;2023-09-12T09:06:22;100322.59;;;19.10;100.00
55070;BME280;40967;52.070;8.596;2023-09-12T09:08:49;100329.44;;;19.04;100.00
55070;BME280;40967;52.070;8.596;2023-09-12T09:11:15;100353.72;;;19.02;100.00
55070;BME280;40967;52.070;8.596;2023-09-12T09:13:40;100344.78;;;19.05;100.00
55070;BME280;40967;52.070;8.596;2023-09-12T09:21:28;100308.34;;;19.16;100.00
55070;BME280;40967;52.070;8.596;2023-09-12T09:23:57;100341.81;;;19.18;100.00
55070;BME280;40967;52.070;8.596;2023-09-12T09:26:24;100343.78;;;19.18;100.00
55070;BME280;40967;52.070;8.596;2023-09-12T09:29:10;100341.66;;;19.15;100.00
55070;BME280;40967;52.070;8.596;2023-09-12T09:31:40;100332.31;;;19.16;100.00
55070;BME280;40967;52.070;8.596;2023-09-12T09:34:11;100332.44;;;19.19;100.00
55070;BME280;40967;52.070;8.596;2023-09-12T09:36:41;100331.09;;;19.25;100.00
55070;BME280;40967;52.070;8.596;2023-09-12T09:39:07;100336.75;;;19.29;100.00
55070;BME280;40967;52.070;8.596;2023-09-12T09:41:33;100367.19;;;19.24;100.00
55070;BME280;40967;52.070;8.596;2023-09-12T09:43:59;100365.47;;;19.19;100.00
55070;BME280;40967;52.070;8.596;2023-09-12T09:46:25;100337.63;;;19.21;100.00
55070;BME280;40967;52.070;8.596;2023-09-12T09:48:52;100294.88;;;19.23;100.00
55070;BME280;40967;52.070;8.596;2023-09-12T09:51:19;100260.88;;;19.28;100.00
55070;BME280;40967;52.070;8.596;2023-09-12T09:53:51;100266.56;;;19.32;100.00
55070;BME280;40967;52.070;8.596;2023-09-12T09:56:18;100285.47;;;19.33;100.00
55070;BME280;40967;52.070;8.596;2023-09-12T09:58:54;100278.47;;;19.36;100.00
55070;BME280;40967;52.070;8.596;2023-09-12T10:01:22;100307.63;;;19.37;100.00
55070;BME280;40967;52.070;8.596;2023-09-12T10:03:49;100314.75;;;19.29;100.00
55070;BME280;40967;52.070;8.596;2023-09-12T10:06:17;100322.22;;;19.29;100.00
55070;BME280;40967;52.070;8.596;2023-09-12T10:08:49;100298.25;;;19.29;100.00
55070;BME280;40967;52.070;8.596;2023-09-12T10:11:16;100307.66;;;19.28;100.00
55070;BME280;40967;52.070;8.596;2023-09-12T10:14:09;100332.44;;;19.19;100.00
55070;BME280;40967;52.070;8.596;2023-09-12T10:16:40;100327.09;;;19.23;100.00
55070;BME280;40967;52.070;8.596;2023-09-12T10:19:17;100332.59;;;19.23;100.00
55070;BME280;40967;52.070;8.596;2023-09-12T10:22:07;100307.34;;;19.21;100.00
55070;BME280;40967;52.070;8.596;2023-09-12T10:24:36;100309.91;;;19.26;100.00
55070;BME280;40967;52.070;8.596;2023-09-12T10:27:03;100323.50;;;19.31;100.00
55070;BME280;40967;52.070;8.596;2023-09-12T10:29:30;100315.75;;;19.33;100.00
55070;BME280;40967;52.070;8.596;2023-09-12T10:31:56;100303.09;;;19.32;100.00
55070;BME280;40967;52.070;8.596;2023-09-12T10:34:24;100309.56;;;19.36;100.00
55070;BME280;40967;52.070;8.596;2023-09-12T10:37:00;100333.50;;;19.36;100.00
55070;BME280;40967;52.070;8.596;2023-09-12T10:39:27;100339.81;;;19.36;100.00
55070;BME280;40967;52.070;8.596;2023-09-12T10:41:54;100329.81;;;19.32;100.00
55070;BME280;40967;52.070;8.596;2023-09-12T10:44:21;100332.91;;;19.30;100.00
55070;BME280;40967;52.070;8.596;2023-09-12T10:46:47;100318.31;;;19.30;100.00
55070;BME280;40967;52.070;8.596;2023-09-12T10:49:17;100302.81;;;19.25;100.00
55070;BME280;40967;52.070;8.596;2023-09-12T10:51:46;100305.41;;;19.30;100.00
55070;BME280;40967;52.070;8.596;2023-09-12T10:54:23;100296.63;;;19.28;100.00
55070;BME280;40967;52.070;8.596;2023-09-12T10:57:07;100302.66;;;19.30;100.00
55070;BME280;40967;52.070;8.596;2023-09-12T10:59:34;100285.34;;;19.21;100.00
55070;BME280;40967;52.070;8.596;2023-09-12T11:05:35;100288.69;;;19.35;100.00
55070;BME280;40967;52.070;8.596;2023-09-12T11:07:59;100286.09;;;19.39;100.00
55070;BME280;40967;52.070;8.596;2023-09-12T11:10:25;100289.63;;;19.39;100.00
55070;BME280;40967;52.070;8.596;2023-09-12T11:12:57;100289.75;;;19.43;100.00
55070;BME280;40967;52.070;8.596;2023-09-12T11:15:24;100293.00;;;19.45;100.00
55070;BME280;40967;52.070;8.596;2023-09-12T11:18:01;100282.59;;;19.50;100.00
55070;BME280;40967;52.070;8.596;2023-09-12T11:20:51;100278.97;;;19.58;100.00
55070;BME280;40967;52.070;8.596;2023-09-12T11:23:20;100271.34;;;19.64;100.00
55070;BME280;40967;52.070;8.596;2023-09-12T11:25:46;100272.88;;;19.73;100.00
55070;BME280;40967;52.070;8.596;2023-09-12T11:28:12;100274.53;;;19.86;100.00
55070;BME280;40967;52.070;8.596;2023-09-12T11:30:56;100275.06;;;20.00;100.00
55070;BME280;40967;52.070;8.596;2023-09-12T11:33:25;100270.59;;;20.16;100.00
55070;BME280;40967;52.070;8.596;2023-09-12T11:35:53;100270.19;;;20.39;100.00
55070;BME280;40967;52.070;8.596;2023-09-12T11:38:29;100268.53;;;20.58;100.00
55070;BME280;40967;52.070;8.596;2023-09-12T11:40:56;100274.75;;;20.79;100.00
55070;BME280;40967;52.070;8.596;2023-09-12T11:43:26;100262.69;;;20.96;100.00
55070;BME280;40967;52.070;8.596;2023-09-12T11:45:52;100266.75;;;21.22;100.00
55070;BME280;40967;52.070;8.596;2023-09-12T11:48:19;100282.22;;;21.51;100.00
55070;BME280;40967;52.070;8.596;2023-09-12T11:50:52;100271.94;;;21.76;100.00
55070;BME280;40967;52.070;8.596;2023-09-12T11:53:27;100266.72;;;21.98;100.00
55070;BME280;40967;52.070;8.596;2023-09-12T11:56:00;100273.41;;;22.25;100.00
55070;BME280;40967;52.070;8.596;2023-09-12T11:58:26;100269.94;;;22.43;100.00
55070;BME280;40967;52.070;8.596;2023-09-12T12:00:59;100266.88;;;22.61;100.00
55070;BME280;40967;52.070;8.596;2023-09-12T12:03:26;100275.03;;;22.85;100.00
55070;BME280;40967;52.070;8.596;2023-09-12T12:05:56;100273.94;;;23.05;100.00
55070;BME280;40967;52.070;8.596;2023-09-12T12:08:25;100270.19;;;23.28;100.00
55070;BME280;40967;52.070;8.596;2023-09-12T12:10:52;100259.50;;;23.46;100.00
55070;BME280;40967;52.070;8.596;2023-09-12T12:13:22;100260.34;;;23.66;99.71
55070;BME280;40967;52.070;8.596;2023-09-12T12:15:47;100260.44;;;23.88;98.52
55070;BME280;40967;52.070;8.596;2023-09-12T12:18:13;100257.69;;;24.07;97.36
55070;BME280;40967;52.070;8.596;2023-09-12T12:20:39;100259.34;;;24.31;96.26
55070;BME280;40967;52.070;8.596;2023-09-12T12:23:06;100250.97;;;24.50;95.18
55070;BME280;40967;52.070;8.596;2023-09-12T12:25:34;100254.22;;;24.75;93.25
55070;BME280;40967;52.070;8.596;2023-09-12T12:28:00;100253.66;;;24.88;91.26
55070;BME280;40967;52.070;8.596;2023-09-12T12:30:30;100256.81;;;24.87;90.69
55070;BME280;40967;52.070;8.596;2023-09-12T12:33:00;100243.09;;;24.97;90.28
55070;BME280;40967;52.070;8.596;2023-09-12T12:35:27;100250.28;;;24.76;88.96
55070;BME280;40967;52.070;8.596;2023-09-12T12:37:54;100237.47;;;24.48;88.93
55070;BME280;40967;52.070;8.596;2023-09-12T12:40:22;100242.31;;;24.51;89.72
55070;BME280;40967;52.070;8.596;2023-09-12T12:42:48;100242.47;;;24.81;89.58
55070;BME280;40967;52.070;8.596;2023-09-12T12:47:43;100227.34;;;24.79;86.42
55070;BME280;40967;52.070;8.596;2023-09-12T12:50:12;100228.00;;;24.95;87.41
55070;BME280;40967;52.070;8.596;2023-09-12T12:52:39;100222.84;;;25.19;87.48
55070;BME280;40967;52.070;8.596;2023-09-12T12:55:12;100233.75;;;25.05;86.46
55070;BME280;40967;52.070;8.596;2023-09-12T12:57:42;100228.00;;;24.95;87.25
55070;BME280;40967;52.070;8.596;2023-09-12T13:00:13;100222.91;;;24.97;85.97